KRNT - Renton
Updated: Wed, 23-Oct-2019 5:53pm PDT

 Wind from N
Wind: N 8 mph , 13 km/h
Temperature: 54°F , 12°C
Dew Point: 45°F , 7°C
Humidity: 72%
Barometer: 30.46 inHg , 1031.5 hPa
Visibility: 9 miles , 14 km
2019/10/24 00:53 KRNT 240053Z 35007KT 9SM CLR 12/07 A3046 RMK AO2 SLP320 T01220072
KBFI - Seattle-Boeing
Updated: Wed, 23-Oct-2019 5:53pm PDT

 Wind from NW
Wind: NW 7 mph , 11 km/h
Temperature: 54°F , 12°C
Dew Point: 45°F , 7°C
Humidity: 72%
Barometer: 30.47 inHg , 1031.8 hPa
Visibility: 10 miles , 16 km
Cloud details: 3000 ft
2019/10/24 00:53 KBFI 240053Z 31006KT 10SM FEW030 12/07 A3047 RMK AO2 SLP318 T01170067
 
KSEA - Seattle
Updated: Wed, 23-Oct-2019 5:53pm PDT

 Wind from N
Wind: N 9 mph , 15 km/h
Temperature: 52°F , 11°C
Dew Point: 43°F , 6°C
Humidity: 72%
Barometer: 30.46 inHg , 1031.5 hPa
Visibility: 10 miles , 16 km
Cloud details: 2500 ft
14000 ft
25000 ft
2019/10/24 00:53 KSEA 240053Z 35008KT 10SM FEW025 FEW140 BKN250 11/06 A3046 RMK AO2 SLP324 T01110061 $
KSMP - Stampede Pass
Updated: Wed, 23-Oct-2019 5:56pm PDT

 Wind from calm
Wind: Calm
Temperature: 45°F , 7°C
Dew Point: 37°F , 3°C
Humidity: 76%
Barometer: 30.42 inHg , 1030.1 hPa
Visibility: 10 miles , 16 km
2019/10/24 00:56 KSMP 240056Z AUTO 00000KT 10SM CLR 07/03 A3042 RMK AO2 SLP314 T00720028